createdAt,value
2023-02-07T00:00:17.907Z,94.04
2023-02-07T00:02:49.323Z,94.79
2023-02-07T00:05:16.967Z,94.72
2023-02-07T00:07:43.971Z,95.05
2023-02-07T00:10:10.712Z,94.94
2023-02-07T00:12:37.219Z,94.94
2023-02-07T00:15:04.636Z,94.87
2023-02-07T00:17:31.405Z,94.77
2023-02-07T00:19:57.953Z,94.89
2023-02-07T00:22:24.502Z,94.65
2023-02-07T00:24:52.048Z,95.16
2023-02-07T00:27:18.600Z,95.15
2023-02-07T00:29:45.232Z,95.12
2023-02-07T00:32:11.901Z,94.63
2023-02-07T00:34:38.501Z,94.75
2023-02-07T00:37:06.552Z,95.17
2023-02-07T00:39:34.103Z,94.99
2023-02-07T00:42:00.840Z,94.89
2023-02-07T00:44:27.641Z,94.79
2023-02-07T00:46:55.959Z,95.28
2023-02-07T00:49:22.746Z,95.17
2023-02-07T00:51:49.427Z,95.03
2023-02-07T00:54:15.989Z,95.08
2023-02-07T00:56:42.669Z,95.14
2023-02-07T00:59:09.445Z,95.32
2023-02-07T01:01:36.287Z,95.14
2023-02-07T01:04:02.979Z,95.01
2023-02-07T01:06:33.590Z,95.18
2023-02-07T01:09:02.266Z,95.15
2023-02-07T01:11:29.688Z,95.07
2023-02-07T01:14:00.554Z,94.99
2023-02-07T01:16:33.272Z,95.28
2023-02-07T01:19:03.555Z,95.40
2023-02-07T01:21:32.301Z,95.47
2023-02-07T01:23:58.908Z,95.39
2023-02-07T01:26:26.735Z,95.65
2023-02-07T01:28:55.094Z,95.31
2023-02-07T01:31:22.896Z,95.81
2023-02-07T01:33:56.491Z,95.62
2023-02-07T01:36:23.599Z,95.60
2023-02-07T01:38:53.112Z,95.81
2023-02-07T01:41:20.678Z,95.46
2023-02-07T01:44:29.289Z,95.91
2023-02-07T01:46:56.810Z,96.06
2023-02-07T01:49:30.652Z,95.74
2023-02-07T01:52:02.854Z,95.64
2023-02-07T01:54:33.481Z,96.19
2023-02-07T01:57:06.587Z,95.72
2023-02-07T01:59:35.751Z,95.87
2023-02-07T02:02:04.432Z,95.53
2023-02-07T02:04:32.257Z,95.58
2023-02-07T02:06:58.810Z,95.67
2023-02-07T02:09:27.280Z,95.63
2023-02-07T02:12:24.146Z,95.96
2023-02-07T02:15:12.453Z,95.72
2023-02-07T02:18:03.042Z,95.65
2023-02-07T02:20:49.181Z,96.06
2023-02-07T02:23:53.922Z,96.11
2023-02-07T02:26:45.294Z,95.60
2023-02-07T02:29:44.517Z,95.20
2023-02-07T02:32:14.121Z,95.53
2023-02-07T02:35:17.879Z,95.68
2023-02-07T02:38:02.822Z,95.61
2023-02-07T02:41:13.755Z,95.24
2023-02-07T02:43:42.807Z,95.34
2023-02-07T02:46:23.110Z,95.57
2023-02-07T02:48:50.135Z,95.45
2023-02-07T02:51:16.647Z,95.62
2023-02-07T02:53:57.130Z,95.64
2023-02-07T02:56:42.108Z,95.21
2023-02-07T02:59:47.948Z,95.70
2023-02-07T03:02:20.256Z,95.18
2023-02-07T03:04:58.996Z,95.69
2023-02-07T03:07:48.604Z,95.78
2023-02-07T03:10:18.218Z,95.61
2023-02-07T03:12:58.673Z,95.76
2023-02-07T03:15:41.577Z,96.16
2023-02-07T03:18:15.632Z,95.95
2023-02-07T03:20:49.706Z,96.37
2023-02-07T03:23:19.685Z,96.49
2023-02-07T03:25:49.028Z,96.58
2023-02-07T03:28:18.172Z,96.41
2023-02-07T03:30:49.632Z,96.65
2023-02-07T03:33:17.933Z,96.41
2023-02-07T03:35:56.360Z,96.52
2023-02-07T03:38:23.804Z,96.48
2023-02-07T03:40:56.446Z,96.56
2023-02-07T03:43:26.966Z,96.71
2023-02-07T03:45:53.708Z,96.43
2023-02-07T03:48:20.377Z,96.20
2023-02-07T03:50:48.571Z,96.13
2023-02-07T03:53:15.429Z,96.54
2023-02-07T03:55:42.056Z,96.73
2023-02-07T03:58:09.794Z,96.58
2023-02-07T04:00:36.773Z,96.69
2023-02-07T04:03:04.464Z,96.55
2023-02-07T04:05:31.064Z,96.76
2023-02-07T04:07:57.648Z,96.70
2023-02-07T04:10:24.335Z,96.90
2023-02-07T04:12:51.125Z,96.64
2023-02-07T04:15:18.104Z,96.96
2023-02-07T04:17:44.609Z,96.78
2023-02-07T04:20:12.022Z,96.73
2023-02-07T04:22:38.649Z,96.73
2023-02-07T04:25:05.755Z,96.58
2023-02-07T04:27:32.442Z,96.61
2023-02-07T04:29:59.197Z,96.74
2023-02-07T04:32:25.646Z,96.44
2023-02-07T04:34:52.232Z,96.34
2023-02-07T04:37:18.818Z,96.64
2023-02-07T04:39:45.919Z,96.60
2023-02-07T04:42:14.417Z,96.50
2023-02-07T04:44:41.093Z,96.51
2023-02-07T04:47:07.858Z,96.27
2023-02-07T04:49:34.864Z,95.93
2023-02-07T04:52:01.822Z,96.29
2023-02-07T04:54:28.304Z,96.02
2023-02-07T04:56:54.846Z,95.77
2023-02-07T04:59:21.428Z,95.87
2023-02-07T05:01:48.162Z,96.01
2023-02-07T05:04:14.708Z,96.15
2023-02-07T05:06:41.439Z,95.45
2023-02-07T05:09:08.032Z,96.09
2023-02-07T05:11:34.581Z,95.79
2023-02-07T05:14:01.181Z,95.78
2023-02-07T05:16:27.901Z,95.80
2023-02-07T05:18:54.483Z,96.08
2023-02-07T05:21:21.181Z,96.01
2023-02-07T05:23:47.915Z,95.88
2023-02-07T05:26:14.978Z,95.94
2023-02-07T05:28:41.458Z,95.86
2023-02-07T05:31:08.172Z,96.06
2023-02-07T05:33:34.769Z,95.85
2023-02-07T05:36:05.335Z,95.94
2023-02-07T05:38:32.045Z,95.85
2023-02-07T05:40:59.024Z,95.92
2023-02-07T05:43:25.758Z,96.01
2023-02-07T05:45:52.425Z,96.00
2023-02-07T05:48:21.909Z,95.80
2023-02-07T05:50:48.607Z,95.71
2023-02-07T05:53:15.110Z,95.90
2023-02-07T05:55:41.761Z,95.76
2023-02-07T05:58:08.384Z,95.82
2023-02-07T06:00:34.892Z,95.34
2023-02-07T06:03:01.481Z,95.46
2023-02-07T06:05:31.696Z,95.76
2023-02-07T06:07:58.712Z,95.87
2023-02-07T06:10:25.394Z,95.99
2023-02-07T06:12:52.018Z,95.82
2023-02-07T06:15:18.782Z,95.60
2023-02-07T06:17:45.348Z,95.84
2023-02-07T06:20:12.252Z,95.75
2023-02-07T06:22:39.287Z,95.85
2023-02-07T06:25:06.179Z,96.00
2023-02-07T06:27:32.815Z,95.80
2023-02-07T06:29:59.513Z,96.10
2023-02-07T06:32:26.345Z,96.23
2023-02-07T06:34:52.987Z,96.19
2023-02-07T06:37:19.923Z,96.07
2023-02-07T06:39:46.503Z,96.21
2023-02-07T06:42:13.244Z,96.28
2023-02-07T06:44:39.952Z,96.33
2023-02-07T06:47:09.338Z,96.48
2023-02-07T06:49:36.082Z,96.59
2023-02-07T06:52:02.933Z,96.33
2023-02-07T06:54:29.376Z,96.55
2023-02-07T06:56:56.015Z,96.26
2023-02-07T06:59:22.554Z,96.30
2023-02-07T07:01:49.653Z,96.35
2023-02-07T07:04:16.381Z,96.47
2023-02-07T07:06:42.861Z,96.50
2023-02-07T07:09:09.416Z,96.22
2023-02-07T07:11:39.144Z,96.12
2023-02-07T07:14:05.602Z,96.49
2023-02-07T07:16:32.261Z,96.27
2023-02-07T07:18:58.783Z,95.86
2023-02-07T07:21:27.639Z,96.13
2023-02-07T07:23:54.971Z,96.19
2023-02-07T07:26:21.976Z,95.79
2023-02-07T07:28:49.568Z,95.84
2023-02-07T07:31:16.543Z,95.68
2023-02-07T07:33:43.149Z,95.88
2023-02-07T07:36:10.062Z,95.83
2023-02-07T07:41:04.287Z,95.45
2023-02-07T07:43:30.836Z,95.68
2023-02-07T07:46:00.088Z,95.92
2023-02-07T07:48:27.630Z,96.01
2023-02-07T07:50:54.441Z,96.02
2023-02-07T07:53:21.663Z,96.00
2023-02-07T07:55:52.839Z,95.88
2023-02-07T07:58:20.066Z,95.76
2023-02-07T08:00:47.694Z,96.11
2023-02-07T08:03:16.058Z,95.78
2023-02-07T08:05:44.196Z,95.97
2023-02-07T08:08:11.460Z,96.16
2023-02-07T08:10:38.469Z,95.89
2023-02-07T08:13:07.606Z,96.22
2023-02-07T08:15:34.155Z,96.12
2023-02-07T08:18:00.783Z,96.35
2023-02-07T08:20:27.448Z,95.99
2023-02-07T08:22:53.993Z,96.00
2023-02-07T08:25:20.541Z,95.81
2023-02-07T08:27:47.010Z,95.94
2023-02-07T08:30:14.481Z,95.79
2023-02-07T08:32:42.034Z,96.23
2023-02-07T08:35:09.510Z,96.32
2023-02-07T08:37:36.142Z,96.38
2023-02-07T08:40:05.217Z,96.54
2023-02-07T08:42:32.161Z,96.72
2023-02-07T08:44:58.729Z,96.86
2023-02-07T08:47:25.709Z,96.86
2023-02-07T08:49:52.307Z,97.06
2023-02-07T08:52:18.865Z,96.97
2023-02-07T08:54:45.378Z,96.80
2023-02-07T08:57:11.920Z,96.92
2023-02-07T08:59:38.388Z,96.87
2023-02-07T09:02:06.336Z,97.00
2023-02-07T09:04:32.843Z,96.92
2023-02-07T09:06:59.416Z,96.90
2023-02-07T09:09:25.970Z,96.53
2023-02-07T09:11:52.514Z,96.90
2023-02-07T09:14:19.231Z,96.41
2023-02-07T09:16:46.099Z,96.49
2023-02-07T09:19:12.866Z,96.88
2023-02-07T09:21:39.346Z,96.75
2023-02-07T09:24:06.126Z,96.66
2023-02-07T09:26:35.310Z,96.64
2023-02-07T09:29:02.047Z,96.83
2023-02-07T09:31:28.645Z,96.94
2023-02-07T09:33:55.212Z,96.43
2023-02-07T09:36:24.495Z,96.71
2023-02-07T09:38:51.772Z,96.78
2023-02-07T09:41:24.736Z,96.79
2023-02-07T09:44:12.955Z,96.81
2023-02-07T09:47:02.392Z,96.28
2023-02-07T09:49:41.366Z,96.52
2023-02-07T09:52:17.162Z,96.43
2023-02-07T09:54:47.291Z,96.53
2023-02-07T09:57:18.660Z,96.28
2023-02-07T09:59:54.840Z,96.10
2023-02-07T10:02:37.796Z,96.03
2023-02-07T10:05:16.584Z,95.79
2023-02-07T10:07:48.267Z,95.33
2023-02-07T10:10:28.922Z,95.21
2023-02-07T10:13:33.043Z,95.25
2023-02-07T10:16:26.334Z,95.47
2023-02-07T10:19:09.132Z,94.56
2023-02-07T10:22:14.788Z,94.59
2023-02-07T10:25:06.442Z,94.77
2023-02-07T10:27:42.486Z,94.28
2023-02-07T10:30:17.065Z,94.36
2023-02-07T10:32:46.920Z,93.87
2023-02-07T10:35:18.875Z,93.75
2023-02-07T10:37:48.167Z,93.87
2023-02-07T10:40:42.479Z,93.67
2023-02-07T10:43:28.474Z,93.29
2023-02-07T10:46:06.357Z,93.01
2023-02-07T10:48:34.121Z,93.24
2023-02-07T10:51:02.983Z,92.92
2023-02-07T10:54:03.041Z,92.54
2023-02-07T10:56:32.084Z,92.87
2023-02-07T10:59:00.148Z,92.55
2023-02-07T11:01:29.216Z,92.37
2023-02-07T11:03:56.146Z,92.02
2023-02-07T11:06:34.404Z,91.48
2023-02-07T11:09:21.161Z,91.44
2023-02-07T11:11:52.564Z,91.97
2023-02-07T11:14:26.841Z,91.66
2023-02-07T11:16:55.690Z,90.89
2023-02-07T11:19:25.790Z,89.75
2023-02-07T11:22:07.340Z,89.35
2023-02-07T11:24:36.660Z,88.57
2023-02-07T11:27:05.679Z,88.04
2023-02-07T11:29:37.597Z,87.21
2023-02-07T11:32:04.745Z,87.38
2023-02-07T11:34:44.357Z,87.42
2023-02-07T11:37:20.230Z,87.50
2023-02-07T11:39:48.555Z,87.74
2023-02-07T11:42:23.268Z,87.00
2023-02-07T11:44:51.737Z,86.71
2023-02-07T11:47:30.335Z,87.38
2023-02-07T11:50:06.670Z,86.46
2023-02-07T11:52:40.495Z,85.50
2023-02-07T11:55:15.670Z,85.61
2023-02-07T11:57:44.988Z,85.31
2023-02-07T12:00:28.636Z,84.24
2023-02-07T12:03:22.494Z,83.39
2023-02-07T12:05:53.498Z,83.81
2023-02-07T12:08:24.248Z,83.78
2023-02-07T12:10:56.131Z,83.19
2023-02-07T12:13:50.828Z,82.39
2023-02-07T12:16:30.175Z,81.25
2023-02-07T12:19:06.735Z,81.72
2023-02-07T12:21:41.956Z,81.94
2023-02-07T12:24:20.580Z,81.71
2023-02-07T12:26:47.024Z,81.56
2023-02-07T12:29:36.743Z,81.98
2023-02-07T12:32:12.752Z,80.54
2023-02-07T12:35:01.624Z,81.04
2023-02-07T12:37:39.180Z,80.79
2023-02-07T12:40:44.713Z,80.32
2023-02-07T12:43:22.084Z,80.54
2023-02-07T12:46:18.013Z,80.03
2023-02-07T12:49:05.507Z,79.12
2023-02-07T12:51:49.828Z,79.52
2023-02-07T12:54:47.492Z,80.08
2023-02-07T12:57:39.525Z,78.67
2023-02-07T13:00:49.464Z,79.08
2023-02-07T13:03:18.844Z,79.72
2023-02-07T13:05:55.212Z,80.21
2023-02-07T13:08:31.180Z,79.02
2023-02-07T13:11:08.179Z,79.18
2023-02-07T13:13:34.866Z,78.84
2023-02-07T13:16:19.713Z,78.53
2023-02-07T13:19:09.844Z,78.22
2023-02-07T13:21:44.140Z,77.72
2023-02-07T13:24:15.367Z,77.96
2023-02-07T13:26:44.950Z,77.31
2023-02-07T13:29:17.227Z,77.53
2023-02-07T13:31:49.562Z,77.50
2023-02-07T13:34:21.404Z,78.00
2023-02-07T13:36:49.699Z,77.47
2023-02-07T13:39:16.841Z,77.48
2023-02-07T13:42:10.504Z,77.44
2023-02-07T13:45:01.420Z,77.41
2023-02-07T13:47:34.069Z,76.50
2023-02-07T13:50:34.601Z,75.70
2023-02-07T13:53:19.974Z,75.80
2023-02-07T13:55:48.258Z,76.10
2023-02-07T13:58:52.076Z,76.67
2023-02-07T14:01:22.005Z,77.07
2023-02-07T14:04:08.831Z,76.68
2023-02-07T14:06:40.344Z,76.62
2023-02-07T14:09:16.102Z,76.41
2023-02-07T14:12:07.598Z,76.81
2023-02-07T14:14:38.664Z,76.67
2023-02-07T14:17:13.812Z,76.64
2023-02-07T14:19:40.456Z,76.72
2023-02-07T14:22:51.206Z,76.13
2023-02-07T14:25:36.978Z,75.76
2023-02-07T14:28:07.614Z,75.86
2023-02-07T14:30:56.179Z,74.67
2023-02-07T14:33:32.965Z,74.81
2023-02-07T14:36:19.305Z,74.65
2023-02-07T14:39:06.938Z,74.48
2023-02-07T14:41:37.570Z,74.95
2023-02-07T14:44:09.863Z,74.85
2023-02-07T14:46:42.030Z,74.54
2023-02-07T14:49:23.326Z,74.12
2023-02-07T14:52:00.705Z,74.38
2023-02-07T14:54:50.985Z,74.17
2023-02-07T14:57:41.356Z,74.80
2023-02-07T15:00:13.850Z,74.60
2023-02-07T15:02:55.937Z,73.45
2023-02-07T15:05:27.933Z,72.87
2023-02-07T15:08:03.483Z,73.57
2023-02-07T15:10:44.051Z,73.69
2023-02-07T15:13:27.328Z,73.71
2023-02-07T15:16:01.546Z,73.74
2023-02-07T15:18:32.450Z,73.49
2023-02-07T15:20:59.776Z,73.68
2023-02-07T15:23:29.129Z,73.79
2023-02-07T15:25:58.987Z,74.28
2023-02-07T15:28:31.915Z,73.61
2023-02-07T15:31:17.048Z,73.73
2023-02-07T15:33:46.532Z,74.43
2023-02-07T15:36:33.715Z,74.21
2023-02-07T15:39:02.590Z,74.50
2023-02-07T15:41:29.557Z,74.42
2023-02-07T15:44:02.096Z,74.80
2023-02-07T15:46:49.393Z,74.84
2023-02-07T15:49:28.090Z,75.67
2023-02-07T15:52:04.913Z,75.82
2023-02-07T15:54:38.312Z,75.73
2023-02-07T15:57:11.680Z,76.11
2023-02-07T15:59:41.544Z,75.69
2023-02-07T16:02:35.810Z,76.13
2023-02-07T16:05:32.940Z,76.41
2023-02-07T16:08:01.673Z,76.60
2023-02-07T16:10:40.015Z,77.03
2023-02-07T16:13:06.664Z,77.22
2023-02-07T16:15:36.816Z,76.94
2023-02-07T16:18:05.708Z,77.06
2023-02-07T16:20:36.293Z,77.42
2023-02-07T16:23:06.912Z,77.67
2023-02-07T16:25:35.445Z,77.75
2023-02-07T16:28:07.647Z,78.23
2023-02-07T16:30:38.232Z,78.25
2023-02-07T16:33:06.027Z,78.10
2023-02-07T16:35:33.107Z,78.49
2023-02-07T16:37:59.634Z,78.55
2023-02-07T16:40:26.846Z,78.93
2023-02-07T16:42:57.617Z,79.57
2023-02-07T16:45:27.538Z,79.95
2023-02-07T16:47:55.755Z,80.27
2023-02-07T16:50:27.779Z,80.49
2023-02-07T16:52:59.470Z,80.68
2023-02-07T16:55:28.312Z,80.94
2023-02-07T16:57:56.631Z,80.57
2023-02-07T17:00:26.271Z,80.96
2023-02-07T17:02:53.796Z,80.97
2023-02-07T17:05:21.792Z,81.49
2023-02-07T17:07:49.935Z,81.73
2023-02-07T17:10:27.542Z,82.77
2023-02-07T17:12:54.271Z,82.64
2023-02-07T17:15:21.435Z,82.55
2023-02-07T17:17:48.703Z,83.06
2023-02-07T17:20:28.174Z,83.19
2023-02-07T17:22:55.319Z,83.07
2023-02-07T17:25:24.249Z,83.40
2023-02-07T17:27:54.060Z,83.60
2023-02-07T17:30:26.113Z,83.37
2023-02-07T17:32:52.677Z,83.84
2023-02-07T17:35:20.657Z,83.81
2023-02-07T17:37:51.056Z,84.06
2023-02-07T17:40:38.883Z,84.38
2023-02-07T17:43:06.937Z,84.19
2023-02-07T17:45:35.233Z,85.08
2023-02-07T17:48:03.094Z,84.67
2023-02-07T17:50:33.110Z,84.75
2023-02-07T17:53:02.929Z,84.89
2023-02-07T17:55:31.478Z,85.32
2023-02-07T17:57:58.098Z,85.35
2023-02-07T18:00:28.973Z,85.66
2023-02-07T18:02:55.548Z,85.46
2023-02-07T18:05:22.674Z,85.57
2023-02-07T18:07:50.019Z,86.11
2023-02-07T18:10:29.170Z,86.07
2023-02-07T18:12:56.252Z,86.28
2023-02-07T18:15:23.493Z,86.14
2023-02-07T18:17:51.576Z,87.28
2023-02-07T18:20:33.796Z,87.22
2023-02-07T18:23:01.343Z,87.26
2023-02-07T18:25:29.688Z,87.83
2023-02-07T18:27:57.009Z,87.47
2023-02-07T18:30:26.095Z,87.79
2023-02-07T18:32:52.731Z,88.27
2023-02-07T18:35:21.825Z,88.59
2023-02-07T18:37:48.584Z,88.63
2023-02-07T18:40:15.923Z,89.09
2023-02-07T18:42:45.001Z,89.38
2023-02-07T18:45:13.666Z,89.61
2023-02-07T18:47:41.508Z,89.36
2023-02-07T18:50:09.760Z,89.28
2023-02-07T18:52:36.335Z,89.68
2023-02-07T18:55:05.902Z,89.76
2023-02-07T18:57:32.577Z,89.79
2023-02-07T18:59:59.163Z,90.29
2023-02-07T19:02:25.776Z,90.46
2023-02-07T19:04:52.490Z,89.90
2023-02-07T19:07:19.136Z,90.18
2023-02-07T19:09:45.696Z,89.98
2023-02-07T19:12:12.430Z,90.13
2023-02-07T19:14:38.961Z,90.31
2023-02-07T19:17:05.486Z,90.28
2023-02-07T19:19:32.447Z,90.33
2023-02-07T19:21:59.483Z,90.02
2023-02-07T19:24:26.908Z,90.41
2023-02-07T19:26:56.656Z,90.31
2023-02-07T19:29:29.346Z,90.34
2023-02-07T19:31:57.977Z,90.14
2023-02-07T19:34:24.476Z,90.49
2023-02-07T19:36:51.146Z,90.46
2023-02-07T19:39:18.505Z,89.97
2023-02-07T19:41:44.964Z,90.10
2023-02-07T19:44:11.593Z,90.26
2023-02-07T19:46:38.153Z,90.46
2023-02-07T19:49:04.789Z,90.55
2023-02-07T19:51:34.142Z,90.68
2023-02-07T19:54:01.485Z,90.32
2023-02-07T19:56:33.287Z,90.78
2023-02-07T19:59:03.091Z,90.48
2023-02-07T20:01:31.290Z,90.92
2023-02-07T20:03:58.340Z,90.96
2023-02-07T20:06:31.336Z,90.55
2023-02-07T20:08:59.156Z,90.94
2023-02-07T20:11:25.971Z,91.04
2023-02-07T20:13:54.622Z,91.08
2023-02-07T20:16:25.063Z,90.91
2023-02-07T20:18:53.162Z,91.23
2023-02-07T20:21:25.354Z,91.65
2023-02-07T20:23:53.897Z,91.14
2023-02-07T20:26:26.947Z,91.36
2023-02-07T20:28:54.298Z,91.31
2023-02-07T20:31:24.486Z,91.67
2023-02-07T20:33:51.073Z,91.66
2023-02-07T20:36:18.868Z,91.87
2023-02-07T20:38:47.065Z,91.54
2023-02-07T20:41:28.816Z,91.30
2023-02-07T20:44:19.441Z,91.69
2023-02-07T20:46:46.795Z,92.10
2023-02-07T20:49:16.692Z,92.14
2023-02-07T20:51:44.931Z,92.07
2023-02-07T20:54:13.027Z,92.92
2023-02-07T20:56:39.716Z,92.49
2023-02-07T20:59:07.384Z,93.18
2023-02-07T21:01:35.622Z,92.87
2023-02-07T21:04:05.369Z,92.86
2023-02-07T21:06:33.629Z,93.16
2023-02-07T21:09:02.618Z,93.35
2023-02-07T21:11:35.179Z,93.25
2023-02-07T21:14:07.015Z,93.25
2023-02-07T21:16:34.325Z,93.45
2023-02-07T21:19:01.105Z,93.87
2023-02-07T21:21:28.142Z,93.80
2023-02-07T21:23:55.015Z,93.46
2023-02-07T21:26:21.605Z,94.09
2023-02-07T21:28:48.180Z,93.97
2023-02-07T21:31:22.036Z,94.15
2023-02-07T21:33:54.426Z,94.24
2023-02-07T21:36:30.127Z,94.03
2023-02-07T21:39:09.152Z,93.98
2023-02-07T21:41:37.050Z,93.89
2023-02-07T21:44:04.957Z,94.04
2023-02-07T21:46:34.565Z,94.16
2023-02-07T21:49:07.243Z,94.42
2023-02-07T21:51:36.053Z,94.48
2023-02-07T21:54:04.425Z,94.28
2023-02-07T21:56:33.387Z,94.52
2023-02-07T21:59:12.016Z,94.72
2023-02-07T22:01:39.432Z,94.71
2023-02-07T22:04:10.289Z,94.30
2023-02-07T22:06:38.459Z,94.48
2023-02-07T22:09:05.571Z,94.72
2023-02-07T22:11:34.993Z,94.66
2023-02-07T22:14:02.390Z,94.99
2023-02-07T22:16:30.266Z,94.58
2023-02-07T22:18:58.450Z,94.56
2023-02-07T22:21:28.788Z,94.95
2023-02-07T22:23:56.519Z,95.01
2023-02-07T22:26:23.701Z,94.92
2023-02-07T22:28:50.751Z,95.09
2023-02-07T22:31:20.438Z,95.17
2023-02-07T22:33:48.123Z,95.37
2023-02-07T22:36:26.727Z,95.25
2023-02-07T22:38:54.026Z,95.44
2023-02-07T22:41:21.342Z,95.09
2023-02-07T22:43:48.680Z,95.19
2023-02-07T22:46:22.788Z,95.00
2023-02-07T22:48:49.911Z,94.91
2023-02-07T22:51:25.550Z,95.22
2023-02-07T22:53:58.269Z,95.28
2023-02-07T22:56:25.582Z,95.32
2023-02-07T22:58:53.525Z,95.30
2023-02-07T23:01:27.559Z,95.37
2023-02-07T23:03:55.097Z,95.16
2023-02-07T23:06:22.427Z,95.10
2023-02-07T23:08:49.834Z,95.04
2023-02-07T23:11:17.706Z,94.83
2023-02-07T23:13:44.538Z,94.66
2023-02-07T23:16:17.888Z,95.19
2023-02-07T23:18:44.882Z,95.18
2023-02-07T23:21:13.239Z,94.99
2023-02-07T23:23:40.716Z,95.29
2023-02-07T23:26:13.530Z,94.87
2023-02-07T23:28:40.085Z,95.00
2023-02-07T23:31:08.587Z,95.16
2023-02-07T23:33:36.937Z,94.83
2023-02-07T23:36:04.834Z,94.84
2023-02-07T23:38:31.812Z,94.91
2023-02-07T23:40:58.355Z,94.90
2023-02-07T23:43:25.409Z,94.63
2023-02-07T23:45:52.365Z,94.67
2023-02-07T23:48:18.972Z,94.62
2023-02-07T23:50:54.514Z,94.78
2023-02-07T23:53:21.839Z,94.71
2023-02-07T23:55:49.659Z,94.79
2023-02-07T23:58:16.932Z,94.87
